createdAt,value
2023-01-22T00:00:01.742Z,27.16
2023-01-22T00:01:01.705Z,27.21
2023-01-22T00:02:01.652Z,27.18
2023-01-22T00:03:01.614Z,27.16
2023-01-22T00:04:01.660Z,27.19
2023-01-22T00:05:01.573Z,27.19
2023-01-22T00:06:01.486Z,27.18
2023-01-22T00:07:01.447Z,27.21
2023-01-22T00:08:01.422Z,27.19
2023-01-22T00:09:01.363Z,27.19
2023-01-22T00:10:01.358Z,27.18
2023-01-22T00:11:01.257Z,27.18
2023-01-22T00:12:01.257Z,27.21
2023-01-22T00:13:01.199Z,27.21
2023-01-22T00:14:01.238Z,27.21
2023-01-22T00:15:01.107Z,27.19
2023-01-22T00:16:01.143Z,27.18
2023-01-22T00:17:01.039Z,27.21
2023-01-22T00:18:01.008Z,27.18
2023-01-22T00:19:00.953Z,27.18
2023-01-22T00:20:00.914Z,27.16
2023-01-22T00:21:00.881Z,27.18
2023-01-22T00:22:00.831Z,27.18
2023-01-22T00:23:00.795Z,27.18
2023-01-22T00:24:00.751Z,27.16
2023-01-22T00:25:00.709Z,27.16
2023-01-22T00:26:00.679Z,27.18
2023-01-22T00:27:00.627Z,27.19
2023-01-22T00:28:00.590Z,27.18
2023-01-22T00:29:00.550Z,27.19
2023-01-22T00:30:00.493Z,27.16
2023-01-22T00:31:00.582Z,27.18
2023-01-22T00:32:00.497Z,27.16
2023-01-22T00:33:00.370Z,27.15
2023-01-22T00:34:00.317Z,27.18
2023-01-22T00:35:00.285Z,27.19
2023-01-22T00:36:00.225Z,27.16
2023-01-22T00:37:00.177Z,27.19
2023-01-22T00:38:00.158Z,27.18
2023-01-22T00:39:00.099Z,27.16
2023-01-22T00:40:00.092Z,27.18
2023-01-22T00:40:59.998Z,27.18
2023-01-22T00:41:59.975Z,27.16
2023-01-22T00:42:59.925Z,27.15
2023-01-22T00:43:59.888Z,27.19
2023-01-22T00:44:59.820Z,27.16
2023-01-22T00:45:59.784Z,27.18
2023-01-22T00:46:59.731Z,27.18
2023-01-22T00:47:59.693Z,27.18
2023-01-22T00:48:59.659Z,27.18
2023-01-22T00:49:59.604Z,27.18
2023-01-22T00:50:59.603Z,27.19
2023-01-22T00:51:59.525Z,27.16
2023-01-22T00:52:59.495Z,27.16
2023-01-22T00:53:59.497Z,27.18
2023-01-22T00:54:59.403Z,27.19
2023-01-22T00:55:59.357Z,27.18
2023-01-22T00:56:59.316Z,27.15
2023-01-22T00:57:59.303Z,27.21
2023-01-22T00:58:59.273Z,27.18
2023-01-22T00:59:59.189Z,27.19
2023-01-22T01:00:59.179Z,27.18
2023-01-22T01:01:59.097Z,27.19
2023-01-22T01:02:59.063Z,27.18
2023-01-22T01:03:59.026Z,27.19
2023-01-22T01:04:58.967Z,27.18
2023-01-22T01:05:58.951Z,27.19
2023-01-22T04:35:49.763Z,27.18
2023-01-22T04:36:49.716Z,27.18
2023-01-22T04:37:49.673Z,27.19
2023-01-22T04:38:49.631Z,27.19
2023-01-22T04:39:49.583Z,27.21
2023-01-22T04:40:49.602Z,27.19
2023-01-22T04:41:49.485Z,27.18
2023-01-22T04:42:49.466Z,27.18
2023-01-22T04:43:49.380Z,27.18
2023-01-22T04:44:49.359Z,27.21
2023-01-22T04:45:49.308Z,27.21
2023-01-22T04:46:49.269Z,27.19
2023-01-22T04:47:49.214Z,27.21
2023-01-22T04:48:49.168Z,27.19
2023-01-22T04:49:49.129Z,27.19
2023-01-22T04:50:49.103Z,27.22
2023-01-22T04:51:49.042Z,27.21
2023-01-22T04:52:48.979Z,27.18
2023-01-22T04:53:48.921Z,27.22
2023-01-22T04:56:48.892Z,27.18
2023-01-22T07:54:41.008Z,27.37
2023-01-22T08:06:40.438Z,27.42
2023-01-22T08:07:40.412Z,27.43
2023-01-22T08:08:40.431Z,27.40
2023-01-22T08:09:40.296Z,27.45
2023-01-22T08:10:40.288Z,27.43
2023-01-22T08:11:40.228Z,27.43
2023-01-22T08:12:40.183Z,27.45
2023-01-22T08:13:40.174Z,27.45
2023-01-22T08:14:40.135Z,27.46
2023-01-22T08:15:40.092Z,27.47
2023-01-22T08:16:40.089Z,27.50
2023-01-22T08:17:40.012Z,27.52
2023-01-22T08:18:39.986Z,27.49
2023-01-22T08:19:39.934Z,27.54
2023-01-22T08:20:39.888Z,27.61
2023-01-22T08:21:39.821Z,27.80
2023-01-22T08:22:39.786Z,27.83
2023-01-22T08:23:39.730Z,27.73
2023-01-22T08:24:39.798Z,27.68
2023-01-22T08:25:39.663Z,27.65
2023-01-22T08:26:39.604Z,27.67
2023-01-22T08:27:39.581Z,27.64
2023-01-22T08:28:39.500Z,27.65
2023-01-22T08:29:39.465Z,27.65
2023-01-22T08:30:45.990Z,27.85
2023-01-22T08:32:39.423Z,27.74
2023-01-22T08:33:39.322Z,27.73
2023-01-22T08:34:39.247Z,27.80
2023-01-22T08:35:39.200Z,27.92
2023-01-22T08:36:39.141Z,28.66
2023-01-22T08:37:39.108Z,29.50
2023-01-22T08:38:39.084Z,30.50
2023-01-22T08:39:38.997Z,31.18
2023-01-22T08:40:39.014Z,31.73
2023-01-22T10:20:32.508Z,30.09
2023-01-22T10:21:32.451Z,30.05
2023-01-22T10:22:32.405Z,30.07
2023-01-22T10:23:32.303Z,30.12
2023-01-22T10:24:32.223Z,30.08
2023-01-22T10:25:32.162Z,30.12
2023-01-22T10:26:32.088Z,30.15
2023-01-22T10:27:32.042Z,30.16
2023-01-22T10:28:31.934Z,30.16
2023-01-22T10:29:31.870Z,30.16
2023-01-22T10:30:31.923Z,30.18
2023-01-22T10:31:31.820Z,30.16
2023-01-22T10:32:31.769Z,30.12
2023-01-22T10:33:31.603Z,30.11
2023-01-22T10:34:31.530Z,30.14
2023-01-22T10:35:31.479Z,30.15
2023-01-22T10:36:31.415Z,30.20
2023-01-22T10:37:31.341Z,30.23
2023-01-22T10:38:31.279Z,30.25
2023-01-22T10:39:31.214Z,30.14
2023-01-22T10:40:31.157Z,30.01
2023-01-22T10:41:31.073Z,30.00
2023-01-22T10:42:31.038Z,29.94
2023-01-22T10:43:31.923Z,29.91
2023-01-22T10:44:30.918Z,29.87
2023-01-22T10:45:30.811Z,29.88
2023-01-22T10:46:30.786Z,29.84
2023-01-22T10:47:30.701Z,29.87
2023-01-22T10:48:30.865Z,29.88
2023-01-22T10:49:30.560Z,29.85
2023-01-22T10:50:30.484Z,29.83
2023-01-22T10:51:30.435Z,29.85
2023-01-22T10:52:30.373Z,29.83
2023-01-22T10:53:30.299Z,29.83
2023-01-22T10:54:30.235Z,29.84
2023-01-22T10:55:30.184Z,29.83
2023-01-22T10:56:30.149Z,29.83
2023-01-22T10:57:30.054Z,29.81
2023-01-22T10:58:29.998Z,29.80
2023-01-22T10:59:29.902Z,29.78
2023-01-22T11:00:34.821Z,29.83
2023-01-22T11:01:30.788Z,29.85
2023-01-22T11:02:29.757Z,29.83
2023-01-22T11:03:29.648Z,29.81
2023-01-22T11:04:29.671Z,29.84
2023-01-22T11:05:29.511Z,29.88
2023-01-22T11:06:29.442Z,29.88
2023-01-22T11:07:31.625Z,29.85
2023-01-22T11:08:29.336Z,29.84
2023-01-22T11:09:29.241Z,29.81
2023-01-22T11:10:29.169Z,29.83
2023-01-22T11:11:29.128Z,29.81
2023-01-22T11:12:29.070Z,29.83
2023-01-22T11:13:28.991Z,29.87
2023-01-22T11:14:28.905Z,29.88
2023-01-22T11:15:28.919Z,29.87
2023-01-22T11:16:28.763Z,29.94
2023-01-22T11:17:28.740Z,29.92
2023-01-22T11:18:28.710Z,29.92
2023-01-22T11:19:36.956Z,29.91
2023-01-22T11:20:29.636Z,29.88
2023-01-22T11:21:28.467Z,29.87
2023-01-22T11:22:28.409Z,29.87
2023-01-22T11:23:28.336Z,29.87
2023-01-22T11:24:28.296Z,29.85
2023-01-22T11:25:28.197Z,29.83
2023-01-22T11:26:28.137Z,29.83
2023-01-22T11:27:28.065Z,29.85
2023-01-22T11:28:28.017Z,29.81
2023-01-22T11:29:27.956Z,29.84
2023-01-22T11:30:28.444Z,29.83
2023-01-22T11:31:27.860Z,29.84
2023-01-22T11:32:27.748Z,29.81
2023-01-22T11:33:27.688Z,29.80
2023-01-22T11:34:27.623Z,29.80
2023-01-22T11:35:27.555Z,29.81
2023-01-22T11:36:27.635Z,29.77
2023-01-22T11:37:27.434Z,29.78
2023-01-22T11:38:27.376Z,29.83
2023-01-22T11:39:27.311Z,29.80
2023-01-22T11:40:27.239Z,29.83
2023-01-22T11:41:27.169Z,29.83
2023-01-22T11:42:27.121Z,29.83
2023-01-22T11:43:27.063Z,29.89
2023-01-22T11:44:26.988Z,29.88
2023-01-22T11:45:26.905Z,29.88
2023-01-22T11:46:26.890Z,29.98
2023-01-22T11:47:26.784Z,30.02
2023-01-22T11:48:26.732Z,30.04
2023-01-22T11:49:26.634Z,30.08
2023-01-22T11:50:26.574Z,30.11
2023-01-22T11:51:26.506Z,30.07
2023-01-22T11:52:26.502Z,30.07
2023-01-22T11:53:26.386Z,30.11
2023-01-22T11:54:26.325Z,30.16
2023-01-22T11:55:26.219Z,30.23
2023-01-22T11:56:26.163Z,30.26
2023-01-22T11:57:26.086Z,30.28
2023-01-22T11:58:26.421Z,30.35
2023-01-22T11:59:25.963Z,30.36
2023-01-22T12:00:25.893Z,30.40
2023-01-22T12:01:25.817Z,30.43
2023-01-22T12:02:25.773Z,30.43
2023-01-22T12:03:25.801Z,30.50
2023-01-22T12:04:25.623Z,30.50
2023-01-22T12:05:25.520Z,30.53
2023-01-22T12:06:25.441Z,30.53
2023-01-22T12:07:25.358Z,30.54
2023-01-22T12:08:25.409Z,30.56
2023-01-22T12:09:25.260Z,30.57
2023-01-22T12:10:25.144Z,30.60
2023-01-22T12:11:25.071Z,30.66
2023-01-22T12:12:25.019Z,30.62
2023-01-22T12:13:24.931Z,30.60
2023-01-22T12:14:24.872Z,30.63
2023-01-22T12:15:24.781Z,30.66
2023-01-22T12:16:24.756Z,30.64
2023-01-22T12:17:24.662Z,30.69
2023-01-22T12:18:24.587Z,30.69
2023-01-22T12:19:24.501Z,30.70
2023-01-22T12:20:24.405Z,30.74
2023-01-22T12:21:24.345Z,30.75
2023-01-22T12:22:24.264Z,30.80
2023-01-22T12:23:24.211Z,30.80
2023-01-22T12:24:24.195Z,30.81
2023-01-22T12:25:24.039Z,30.82
2023-01-22T12:26:24.002Z,30.81
2023-01-22T12:27:23.879Z,30.82
2023-01-22T12:28:23.811Z,30.82
2023-01-22T12:29:23.731Z,30.82
2023-01-22T12:30:23.677Z,30.81
2023-01-22T12:31:23.739Z,30.82
2023-01-22T12:32:23.506Z,30.87
2023-01-22T12:33:23.456Z,30.84
2023-01-22T12:34:23.467Z,30.88
2023-01-22T12:35:23.325Z,30.88
2023-01-22T12:36:23.215Z,30.92
2023-01-22T12:37:23.140Z,30.91
2023-01-22T12:38:23.084Z,30.90
2023-01-22T12:39:23.001Z,30.91
2023-01-22T12:40:22.988Z,30.92
2023-01-22T12:41:22.828Z,30.94
2023-01-22T12:42:22.756Z,30.95
2023-01-22T12:43:22.685Z,30.92
2023-01-22T12:44:22.605Z,30.94
2023-01-22T12:45:22.517Z,30.97
2023-01-22T12:46:22.520Z,30.94
2023-01-22T12:47:22.436Z,30.94
2023-01-22T12:48:22.301Z,30.92
2023-01-22T12:49:22.232Z,30.95
2023-01-22T12:50:22.333Z,30.95
2023-01-22T12:51:22.124Z,30.97
2023-01-22T12:52:21.976Z,30.98
2023-01-22T12:53:21.897Z,30.92
2023-01-22T12:54:21.857Z,30.92
2023-01-22T12:55:21.727Z,30.91
2023-01-22T12:56:21.752Z,30.90
2023-01-22T12:57:21.580Z,30.87
2023-01-22T12:58:21.489Z,30.85
2023-01-22T12:59:21.426Z,30.82
2023-01-22T13:00:21.331Z,30.81
2023-01-22T13:01:21.251Z,30.81
2023-01-22T13:02:21.208Z,30.78
2023-01-22T13:03:31.011Z,30.77
2023-01-22T13:04:22.015Z,30.77
2023-01-22T13:05:20.929Z,30.77
2023-01-22T13:06:20.842Z,30.74
2023-01-22T13:07:20.775Z,30.75
2023-01-22T13:08:20.754Z,30.73
2023-01-22T13:09:20.622Z,30.73
2023-01-22T13:10:21.169Z,30.73
2023-01-22T13:11:20.465Z,30.67
2023-01-22T13:12:20.464Z,30.69
2023-01-22T13:13:20.315Z,30.67
2023-01-22T13:14:20.256Z,30.67
2023-01-22T13:15:20.202Z,30.63
2023-01-22T13:16:20.122Z,30.64
2023-01-22T13:17:20.019Z,30.64
2023-01-22T13:18:19.955Z,30.64
2023-01-22T13:19:19.865Z,30.63
2023-01-22T13:20:20.136Z,30.66
2023-01-22T13:21:19.734Z,30.70
2023-01-22T13:22:19.659Z,30.71
2023-01-22T13:23:21.537Z,30.73
2023-01-22T13:24:19.540Z,30.73
2023-01-22T13:25:19.702Z,30.75
2023-01-22T13:26:19.363Z,30.77
2023-01-22T13:27:19.270Z,30.81
2023-01-22T13:28:19.276Z,30.84
2023-01-22T13:29:19.115Z,30.87
2023-01-22T13:30:19.356Z,30.87
2023-01-22T13:31:19.068Z,30.90
2023-01-22T14:26:15.065Z,30.33
2023-01-22T14:28:14.912Z,30.30
2023-01-22T14:29:14.835Z,30.30
2023-01-22T14:30:14.784Z,30.28
2023-01-22T14:31:14.705Z,30.25
2023-01-22T14:32:14.708Z,30.28
2023-01-22T14:33:14.555Z,30.22
2023-01-22T14:34:14.506Z,30.22
2023-01-22T14:35:14.428Z,30.22
2023-01-22T14:36:14.368Z,30.19
2023-01-22T14:37:14.291Z,30.18
2023-01-22T14:38:14.237Z,30.16
2023-01-22T14:39:14.154Z,30.14
2023-01-22T14:40:14.105Z,30.14
2023-01-22T14:41:14.015Z,30.09
2023-01-22T14:42:13.957Z,30.11
2023-01-22T14:43:13.885Z,30.09
2023-01-22T14:44:13.852Z,30.07
2023-01-22T14:45:15.724Z,30.07
2023-01-22T14:46:13.720Z,30.05
2023-01-22T14:47:13.611Z,30.02
2023-01-22T14:48:13.643Z,30.05
2023-01-22T14:49:13.491Z,30.00
2023-01-22T14:51:13.476Z,30.00
2023-01-22T14:52:13.292Z,29.98
2023-01-22T14:53:13.233Z,29.98
2023-01-22T14:54:13.201Z,29.95
2023-01-22T14:55:13.114Z,29.95
2023-01-22T14:56:13.057Z,29.94
2023-01-22T14:57:12.988Z,29.94
2023-01-22T14:58:12.946Z,29.92
2023-01-22T14:59:12.893Z,29.91
2023-01-22T15:01:12.844Z,29.88
2023-01-22T15:43:10.422Z,29.42
2023-01-22T15:44:10.350Z,29.39
2023-01-22T15:45:10.274Z,29.40
2023-01-22T15:46:10.303Z,29.36
2023-01-22T15:47:10.185Z,29.37
2023-01-22T15:48:10.109Z,29.34
2023-01-22T15:49:10.069Z,29.39
2023-01-22T15:50:10.019Z,29.33
2023-01-22T15:51:10.028Z,29.33
2023-01-22T15:52:09.971Z,29.30
2023-01-22T15:53:09.846Z,29.30
2023-01-22T15:54:09.779Z,29.32
2023-01-22T15:55:09.735Z,29.30
2023-01-22T15:56:09.683Z,29.29
2023-01-22T15:57:09.649Z,29.28
2023-01-22T15:58:09.555Z,29.28
2023-01-22T15:59:09.533Z,29.26
2023-01-22T16:00:09.465Z,29.25
2023-01-22T16:01:09.465Z,29.26
2023-01-22T16:02:09.497Z,29.25
2023-01-22T16:03:09.301Z,29.23
2023-01-22T16:04:09.259Z,29.22
2023-01-22T16:05:09.197Z,29.21
2023-01-22T16:06:09.178Z,29.19
2023-01-22T16:07:09.112Z,29.19
2023-01-22T16:08:09.116Z,29.16
2023-01-22T16:09:08.992Z,29.18
2023-01-22T16:10:08.932Z,29.15
2023-01-22T17:12:11.534Z,28.80
2023-01-22T17:45:09.562Z,28.67
2023-01-22T18:51:00.430Z,28.46
2023-01-22T18:52:00.268Z,28.46
2023-01-22T18:53:00.199Z,28.44
2023-01-22T18:54:00.158Z,28.46
2023-01-22T18:55:00.124Z,28.44
2023-01-22T18:56:00.143Z,28.43
2023-01-22T18:57:00.009Z,28.46
2023-01-22T18:57:59.925Z,28.46
2023-01-22T18:58:59.892Z,28.42
2023-01-22T18:59:59.822Z,28.43
2023-01-22T19:00:59.755Z,28.43
2023-01-22T19:01:59.728Z,28.42
2023-01-22T19:02:59.680Z,28.40
2023-01-22T19:03:59.604Z,28.40
2023-01-22T19:04:59.543Z,28.42
2023-01-22T19:05:59.570Z,28.40
2023-01-22T19:06:59.418Z,28.40
2023-01-22T19:07:59.377Z,28.39
2023-01-22T19:08:59.381Z,28.40
2023-01-22T19:09:59.236Z,28.39
2023-01-22T19:10:59.198Z,28.38
2023-01-22T19:11:59.171Z,28.38
2023-01-22T19:12:59.064Z,28.38
2023-01-22T19:13:58.992Z,28.36
2023-01-22T19:14:58.934Z,28.38
2023-01-22T19:22:59.579Z,28.33
2023-01-22T22:32:49.115Z,28.01
2023-01-22T22:35:48.954Z,27.99
2023-01-22T22:36:48.916Z,28.01
2023-01-22T23:20:46.618Z,27.98
2023-01-22T23:21:46.544Z,27.97
2023-01-22T23:23:46.467Z,27.97
2023-01-22T23:24:46.393Z,27.97
2023-01-22T23:25:46.393Z,27.97
2023-01-22T23:26:46.285Z,27.97
2023-01-22T23:27:46.233Z,27.94
2023-01-22T23:28:46.173Z,27.95
2023-01-22T23:29:46.131Z,27.97
2023-01-22T23:30:46.155Z,27.95
2023-01-22T23:31:46.129Z,27.94
2023-01-22T23:32:45.969Z,27.94
2023-01-22T23:33:45.960Z,27.95
2023-01-22T23:34:45.868Z,27.95
2023-01-22T23:35:45.826Z,27.94
2023-01-22T23:36:45.814Z,27.94
2023-01-22T23:37:45.733Z,27.94
2023-01-22T23:38:45.760Z,27.95
2023-01-22T23:39:45.630Z,27.92
2023-01-22T23:40:45.579Z,27.92
2023-01-22T23:41:45.527Z,27.92
2023-01-22T23:42:45.484Z,27.95
2023-01-22T23:43:45.445Z,27.91
2023-01-22T23:44:45.396Z,27.94
2023-01-22T23:45:45.343Z,27.92
2023-01-22T23:46:45.277Z,27.92
2023-01-22T23:47:45.227Z,27.92
2023-01-22T23:48:45.191Z,27.92
2023-01-22T23:49:45.140Z,27.94
2023-01-22T23:50:45.101Z,27.92
2023-01-22T23:51:45.030Z,27.94
2023-01-22T23:52:44.977Z,27.92
2023-01-22T23:53:44.941Z,27.92
2023-01-22T23:54:44.970Z,27.94
2023-01-22T23:55:44.832Z,27.91
2023-01-22T23:56:44.774Z,27.95
2023-01-22T23:57:44.723Z,27.91
2023-01-22T23:58:44.683Z,27.91
2023-01-22T23:59:44.644Z,27.92
